Time;durP1;ratioP1;P1;durP2;ratioP2;P2;SDS_P1;SDS_P2;PMS_P1;PMS_P2;Temp;Humidity;BMP_temperature;BMP_pressure;BME280_temperature;BME280_humidity;BME280_pressure;Samples;Min_cycle;Max_cycle;Signal;HPM_P1;HPM_P2
2022/08/16 00:01:57;;;;;;;7.20;5.03;;;19.40;99.90;;;;;;5032024;28;20449;-68
2022/08/16 00:04:23;;;;;;;8.23;4.70;;;19.40;99.90;;;;;;5031972;28;20493;-68
2022/08/16 00:06:50;;;;;;;7.33;5.00;;;19.40;99.90;;;;;;5031641;28;20477;-68
2022/08/16 00:09:17;;;;;;;6.20;4.90;;;19.40;99.90;;;;;;5031660;28;20441;-68
2022/08/16 00:11:46;;;;;;;6.13;5.07;;;19.30;99.90;;;;;;5031771;28;20460;-68
2022/08/16 00:14:17;;;;;;;6.90;5.10;;;19.30;99.90;;;;;;5031825;28;20449;-68
2022/08/16 00:16:45;;;;;;;4.80;4.20;;;19.30;99.90;;;;;;5031458;28;20465;-68
2022/08/16 00:19:15;;;;;;;5.27;4.50;;;19.20;99.90;;;;;;5031588;28;20947;-68
2022/08/16 00:21:42;;;;;;;6.10;4.67;;;19.20;99.90;;;;;;5031483;28;20445;-68
2022/08/16 00:24:09;;;;;;;4.60;3.73;;;19.10;99.90;;;;;;5031657;28;20489;-68
2022/08/16 00:26:36;;;;;;;6.70;4.50;;;19.00;99.90;;;;;;5031072;28;20477;-68
2022/08/16 00:29:03;;;;;;;5.57;4.57;;;19.00;99.90;;;;;;5031498;28;20455;-69
2022/08/16 00:31:32;;;;;;;6.50;4.70;;;18.90;99.90;;;;;;5031512;28;20448;-68
2022/08/16 00:34:00;;;;;;;7.73;4.20;;;18.80;99.90;;;;;;5031252;28;20445;-68
2022/08/16 00:36:27;;;;;;;5.23;4.30;;;18.80;99.90;;;;;;5030912;28;20468;-69
2022/08/16 00:38:54;;;;;;;6.40;4.70;;;18.80;99.90;;;;;;5031942;28;20459;-69
2022/08/16 00:41:21;;;;;;;5.57;4.53;;;18.70;99.90;;;;;;5031376;28;20483;-68
2022/08/16 00:43:49;;;;;;;6.03;4.50;;;18.70;99.90;;;;;;5032142;28;20860;-68
2022/08/16 00:46:22;;;;;;;6.30;4.57;;;18.70;99.90;;;;;;5031556;28;20540;-68
2022/08/16 00:48:50;;;;;;;5.10;4.07;;;18.70;99.90;;;;;;5031279;28;20445;-68
2022/08/16 00:51:21;;;;;;;4.90;4.30;;;18.70;99.90;;;;;;5031238;28;20532;-68
2022/08/16 00:53:49;;;;;;;5.37;4.83;;;18.70;99.90;;;;;;5030982;28;20445;-68
2022/08/16 00:56:28;;;;;;;6.63;4.97;;;18.70;99.90;;;;;;5030507;28;20452;-68
2022/08/16 00:58:55;;;;;;;6.77;4.40;;;18.70;99.90;;;;;;5031062;28;20733;-68
2022/08/16 01:01:22;;;;;;;4.83;4.33;;;18.80;99.90;;;;;;5030816;28;20459;-69
2022/08/16 01:03:52;;;;;;;4.93;4.47;;;18.90;99.90;;;;;;5030896;28;20484;-68
2022/08/16 01:06:22;;;;;;;5.07;4.57;;;18.90;99.90;;;;;;5030521;28;20469;-69
2022/08/16 01:08:52;;;;;;;6.37;4.77;;;18.90;99.90;;;;;;5031083;28;20531;-68
2022/08/16 01:11:20;;;;;;;7.90;5.07;;;19.00;99.90;;;;;;5030562;28;20448;-68
2022/08/16 01:13:48;;;;;;;6.17;4.87;;;19.00;99.90;;;;;;5030691;28;20452;-68
2022/08/16 01:16:18;;;;;;;5.37;4.70;;;18.90;99.90;;;;;;5030743;28;20460;-68
2022/08/16 01:18:49;;;;;;;5.00;4.30;;;18.90;99.90;;;;;;5031018;28;21251;-68
2022/08/16 01:21:27;;;;;;;5.57;4.80;;;19.00;99.90;;;;;;5030931;28;20957;-68
2022/08/16 01:24:16;;;;;;;5.93;4.90;;;18.90;99.90;;;;;;5030724;28;20479;-69
2022/08/16 01:26:45;;;;;;;6.27;4.73;;;18.90;99.90;;;;;;5030440;28;20479;-68
2022/08/16 01:29:17;;;;;;;7.60;4.27;;;18.70;99.90;;;;;;5030656;28;20440;-67
2022/08/16 01:31:44;;;;;;;5.30;4.50;;;18.70;99.90;;;;;;5030447;28;20451;-68
2022/08/16 01:34:15;;;;;;;6.83;4.93;;;18.60;99.90;;;;;;5030127;28;20965;-69
2022/08/16 01:36:42;;;;;;;6.77;5.27;;;18.50;99.90;;;;;;5029795;28;20551;-69
2022/08/16 01:39:12;;;;;;;6.07;4.70;;;18.40;99.90;;;;;;5030377;28;20457;-69
2022/08/16 01:41:40;;;;;;;7.50;4.20;;;18.40;99.90;;;;;;5030411;28;20441;-68
2022/08/16 01:44:07;;;;;;;4.90;4.40;;;18.30;99.90;;;;;;5030157;28;20485;-68
2022/08/16 01:46:38;;;;;;;7.60;4.93;;;18.20;99.90;;;;;;5029797;28;20890;-68
2022/08/16 01:49:08;;;;;;;7.00;5.13;;;18.10;99.90;;;;;;5029869;28;20445;-68
2022/08/16 01:51:36;;;;;;;9.90;4.90;;;18.00;99.90;;;;;;5029921;28;20939;-68
2022/08/16 01:54:04;;;;;;;5.50;4.63;;;17.90;99.90;;;;;;5030177;28;20449;-68
2022/08/16 01:56:32;;;;;;;6.30;5.07;;;17.80;99.90;;;;;;5029879;28;20583;-67
2022/08/16 01:59:01;;;;;;;5.60;4.57;;;17.70;99.90;;;;;;5029969;28;20448;-68
2022/08/16 02:01:29;;;;;;;5.60;5.10;;;17.60;99.90;;;;;;5029767;28;20447;-68
2022/08/16 02:03:57;;;;;;;5.63;5.13;;;17.60;99.90;;;;;;5029566;28;21028;-68
2022/08/16 02:06:25;;;;;;;6.97;4.77;;;17.60;99.90;;;;;;5029618;28;20473;-68
2022/08/16 02:08:53;;;;;;;7.63;4.87;;;17.60;99.90;;;;;;5030087;28;20457;-68
2022/08/16 02:11:21;;;;;;;5.53;4.80;;;17.60;99.90;;;;;;5029869;28;20457;-69
2022/08/16 02:13:49;;;;;;;5.60;5.00;;;17.50;99.90;;;;;;5029598;28;20532;-68
2022/08/16 02:16:16;;;;;;;5.43;4.93;;;17.50;99.90;;;;;;5029059;28;20465;-68
2022/08/16 02:18:43;;;;;;;6.80;4.97;;;17.50;99.90;;;;;;5029650;28;21106;-68
2022/08/16 02:21:10;;;;;;;5.83;4.70;;;17.60;99.90;;;;;;5029731;28;20453;-68
2022/08/16 02:23:39;;;;;;;5.60;4.70;;;17.70;99.90;;;;;;5032431;28;20486;-68
2022/08/16 02:26:06;;;;;;;6.70;5.30;;;17.80;99.90;;;;;;5033254;28;20577;-69
2022/08/16 02:28:33;;;;;;;5.47;4.33;;;17.80;99.90;;;;;;5033654;28;20448;-69
2022/08/16 02:31:07;;;;;;;5.20;4.70;;;17.80;99.90;;;;;;5033643;28;20463;-68
2022/08/16 02:33:34;;;;;;;6.03;5.00;;;17.70;99.90;;;;;;5033787;28;20444;-68
2022/08/16 02:36:01;;;;;;;5.40;4.80;;;17.60;99.90;;;;;;5033275;28;20985;-67
2022/08/16 02:38:28;;;;;;;6.70;5.00;;;17.60;99.90;;;;;;5033604;28;20537;-68
2022/08/16 02:40:56;;;;;;;6.20;4.63;;;17.60;99.90;;;;;;5033388;28;20459;-68
2022/08/16 02:43:23;;;;;;;5.90;5.30;;;17.50;99.90;;;;;;5033111;28;20455;-69
2022/08/16 02:45:50;;;;;;;7.10;4.97;;;17.60;99.90;;;;;;5033017;28;20444;-68
2022/08/16 02:48:18;;;;;;;7.60;5.43;;;17.60;99.90;;;;;;5033315;28;20472;-69
2022/08/16 02:50:45;;;;;;;5.83;5.10;;;17.70;99.90;;;;;;5033308;28;20449;-68
2022/08/16 02:53:11;;;;;;;6.40;5.20;;;17.70;99.90;;;;;;5033152;28;20459;-68
2022/08/16 02:55:39;;;;;;;6.30;5.70;;;17.70;99.90;;;;;;5032926;28;20814;-68
2022/08/16 02:58:09;;;;;;;7.10;5.70;;;17.70;99.90;;;;;;5032968;28;20468;-68
2022/08/16 03:00:35;;;;;;;6.17;5.57;;;17.80;99.90;;;;;;5033350;28;20571;-69
2022/08/16 03:03:02;;;;;;;8.40;5.20;;;17.80;99.90;;;;;;5033149;28;20528;-69
2022/08/16 03:05:31;;;;;;;8.20;6.20;;;17.70;99.90;;;;;;5032717;28;20495;-69
2022/08/16 03:07:58;;;;;;;5.80;5.30;;;17.80;99.90;;;;;;5033864;28;20645;-68
2022/08/16 03:10:25;;;;;;;6.50;5.80;;;17.80;99.90;;;;;;5033460;28;20445;-68
2022/08/16 03:12:52;;;;;;;5.80;5.20;;;17.80;99.90;;;;;;5033136;28;20445;-69
2022/08/16 03:15:19;;;;;;;7.10;5.87;;;17.90;99.90;;;;;;5033948;28;20491;-69
2022/08/16 03:17:46;;;;;;;6.90;5.00;;;18.00;99.90;;;;;;5033469;28;20471;-68
2022/08/16 03:20:16;;;;;;;7.10;5.53;;;18.10;99.90;;;;;;5033632;28;20456;-69
2022/08/16 03:22:44;;;;;;;5.40;4.87;;;18.10;99.90;;;;;;5033150;28;20456;-68
2022/08/16 03:25:14;;;;;;;6.57;5.50;;;18.10;99.90;;;;;;5032405;28;20488;-69
2022/08/16 03:27:41;;;;;;;5.73;4.83;;;18.10;99.90;;;;;;5032654;28;20484;-68
2022/08/16 03:30:12;;;;;;;10.33;5.80;;;17.90;99.90;;;;;;5032974;28;20817;-68
2022/08/16 03:32:40;;;;;;;6.07;5.20;;;17.70;99.90;;;;;;5032979;28;20445;-68
2022/08/16 03:35:08;;;;;;;6.47;5.87;;;17.60;99.90;;;;;;5032633;28;20445;-68
2022/08/16 03:37:35;;;;;;;7.67;6.30;;;17.40;99.90;;;;;;5032548;28;20465;-68
2022/08/16 03:40:06;;;;;;;6.70;6.00;;;17.40;99.90;;;;;;5032581;28;20449;-68
2022/08/16 03:42:33;;;;;;;5.83;5.20;;;17.20;99.90;;;;;;5032693;28;20816;-68
2022/08/16 03:45:00;;;;;;;6.47;5.33;;;17.10;99.90;;;;;;5032027;28;20539;-68
2022/08/16 03:47:27;;;;;;;7.87;6.97;;;16.90;99.90;;;;;;5032039;28;20557;-68
2022/08/16 03:49:54;;;;;;;7.33;5.70;;;16.80;99.90;;;;;;5032046;28;20457;-69
2022/08/16 03:52:24;;;;;;;6.27;5.67;;;16.80;99.90;;;;;;5032250;28;20448;-68
2022/08/16 03:54:52;;;;;;;8.33;7.23;;;16.70;99.90;;;;;;5032136;28;20451;-68
2022/08/16 03:57:21;;;;;;;5.83;5.10;;;16.60;99.90;;;;;;5032049;28;20475;-68
2022/08/16 03:59:48;;;;;;;5.63;5.13;;;16.60;99.90;;;;;;5032062;28;20476;-67
2022/08/16 04:02:17;;;;;;;6.50;5.90;;;16.60;99.90;;;;;;5032028;28;20850;-68
2022/08/16 04:04:45;;;;;;;7.17;6.30;;;16.60;99.90;;;;;;5031470;28;21204;-68
2022/08/16 04:07:12;;;;;;;6.90;5.80;;;16.60;99.90;;;;;;5031824;28;20979;-68
2022/08/16 04:09:39;;;;;;;6.83;6.10;;;16.60;99.90;;;;;;5032064;28;20459;-68
2022/08/16 04:12:08;;;;;;;7.50;6.50;;;16.50;99.90;;;;;;5031774;28;20536;-68
2022/08/16 04:14:37;;;;;;;7.00;6.30;;;16.50;99.90;;;;;;5031453;28;20445;-68
2022/08/16 04:17:04;;;;;;;8.20;6.73;;;16.40;99.90;;;;;;5031593;28;20471;-68
2022/08/16 04:19:31;;;;;;;9.53;6.00;;;16.40;99.90;;;;;;5031740;28;20456;-68
2022/08/16 04:21:58;;;;;;;8.17;6.10;;;16.40;99.90;;;;;;5031517;28;20955;-68
2022/08/16 04:24:25;;;;;;;8.57;6.70;;;16.40;99.90;;;;;;5031295;28;20477;-67
2022/08/16 04:26:52;;;;;;;8.93;6.80;;;16.40;99.90;;;;;;5031273;28;20986;-68
2022/08/16 04:29:18;;;;;;;7.57;6.60;;;16.40;99.90;;;;;;5031397;28;20463;-68
2022/08/16 04:31:48;;;;;;;7.40;6.27;;;16.40;99.90;;;;;;5031282;28;20453;-68
2022/08/16 04:34:15;;;;;;;7.27;6.37;;;16.40;99.90;;;;;;5031495;28;20451;-66
2022/08/16 04:36:41;;;;;;;8.80;7.00;;;16.50;99.90;;;;;;5031033;28;20847;-68
2022/08/16 04:39:08;;;;;;;7.00;6.20;;;16.50;99.90;;;;;;5031301;28;20452;-68
2022/08/16 04:41:35;;;;;;;7.37;6.60;;;16.70;99.90;;;;;;5031263;28;20449;-68
2022/08/16 04:44:02;;;;;;;6.87;6.17;;;16.80;99.90;;;;;;5030885;28;20449;-69
2022/08/16 04:46:29;;;;;;;7.33;6.43;;;17.00;99.90;;;;;;5030227;28;20469;-68
2022/08/16 04:48:58;;;;;;;8.20;7.00;;;17.10;99.90;;;;;;5031176;28;20548;-68
2022/08/16 04:51:24;;;;;;;6.10;5.50;;;17.10;99.90;;;;;;5031075;28;20942;-68
2022/08/16 04:53:52;;;;;;;6.40;5.60;;;17.10;99.90;;;;;;5031118;28;20818;-68
2022/08/16 04:56:21;;;;;;;9.83;6.10;;;17.20;99.90;;;;;;5030823;28;20522;-69
2022/08/16 04:58:48;;;;;;;9.17;5.67;;;17.30;99.90;;;;;;5030715;28;20449;-68
2022/08/16 05:01:16;;;;;;;6.57;5.97;;;17.40;99.90;;;;;;5030981;28;20457;-68
2022/08/16 05:03:43;;;;;;;7.63;6.70;;;17.50;99.90;;;;;;5030818;28;20451;-68
2022/08/16 05:06:12;;;;;;;7.53;5.90;;;17.50;99.90;;;;;;5030452;28;20485;-69
2022/08/16 05:08:39;;;;;;;8.10;6.47;;;17.60;99.90;;;;;;5030841;28;20445;-68
2022/08/16 05:11:08;;;;;;;7.67;5.20;;;17.70;99.90;;;;;;5030607;28;20468;-68
2022/08/16 05:13:37;;;;;;;7.73;6.07;;;17.90;99.90;;;;;;5030759;28;20668;-68
2022/08/16 05:16:05;;;;;;;6.80;6.10;;;18.00;99.90;;;;;;5030402;28;20460;-68
2022/08/16 05:18:32;;;;;;;8.50;5.33;;;18.10;99.90;;;;;;5030873;28;20456;-68
2022/08/16 05:20:59;;;;;;;7.70;5.23;;;18.20;99.90;;;;;;5031151;28;20445;-68
2022/08/16 05:23:27;;;;;;;6.60;5.90;;;18.30;99.90;;;;;;5030698;28;20490;-69
2022/08/16 05:25:54;;;;;;;8.10;6.03;;;18.40;99.90;;;;;;5031051;28;20485;-68
2022/08/16 05:28:21;;;;;;;5.83;5.10;;;18.50;99.90;;;;;;5030964;28;21033;-68
2022/08/16 05:30:50;;;;;;;7.50;6.00;;;18.60;99.90;;;;;;5030792;28;20495;-68
2022/08/16 05:33:17;;;;;;;6.73;5.97;;;18.60;99.90;;;;;;5030814;28;20545;-69
2022/08/16 05:35:44;;;;;;;7.30;5.70;;;18.70;99.90;;;;;;5030471;28;20437;-68
2022/08/16 05:38:11;;;;;;;18.20;7.37;;;18.80;99.90;;;;;;5030458;28;20479;-69
2022/08/16 05:40:40;;;;;;;21.43;6.53;;;18.90;99.90;;;;;;5030712;28;20453;-68
2022/08/16 05:43:07;;;;;;;15.20;7.23;;;19.00;99.90;;;;;;5030529;28;20445;-68
2022/08/16 05:45:34;;;;;;;9.97;6.20;;;19.00;99.90;;;;;;5030317;28;20507;-68
2022/08/16 05:48:01;;;;;;;8.37;5.80;;;19.10;99.90;;;;;;5030664;28;20479;-68
2022/08/16 05:50:28;;;;;;;8.90;5.63;;;19.00;99.90;;;;;;5030587;28;20445;-69
2022/08/16 05:52:55;;;;;;;6.77;5.50;;;19.10;99.90;;;;;;5030277;28;20987;-68
2022/08/16 05:55:22;;;;;;;12.80;6.20;;;19.20;99.90;;;;;;5030094;28;20447;-68
2022/08/16 05:57:50;;;;;;;6.90;5.80;;;19.40;99.90;;;;;;5029306;28;20465;-69
2022/08/16 06:00:17;;;;;;;5.30;4.80;;;19.60;99.90;;;;;;5030045;28;20451;-68
2022/08/16 06:02:44;;;;;;;6.87;5.60;;;19.70;99.90;;;;;;5029948;28;20445;-69
2022/08/16 06:05:11;;;;;;;5.80;5.13;;;20.00;99.90;;;;;;5029480;28;20532;-68
2022/08/16 06:07:38;;;;;;;5.37;4.87;;;20.10;99.90;;;;;;5029664;28;20527;-68
2022/08/16 06:10:06;;;;;;;5.50;4.93;;;20.20;99.90;;;;;;5029891;28;20957;-68
2022/08/16 06:12:33;;;;;;;6.60;6.00;;;20.30;99.90;;;;;;5029764;28;20448;-68
2022/08/16 06:15:05;;;;;;;6.60;5.70;;;20.40;99.90;;;;;;5029752;28;20447;-68
2022/08/16 06:17:31;;;;;;;7.83;6.70;;;20.30;99.90;;;;;;5029745;28;20560;-69
2022/08/16 06:19:58;;;;;;;11.03;5.23;;;20.30;99.90;;;;;;5029636;28;20510;-68
2022/08/16 06:22:25;;;;;;;5.80;5.20;;;20.40;99.90;;;;;;5029542;28;20445;-68
2022/08/16 06:24:52;;;;;;;7.47;5.20;;;20.60;99.90;;;;;;5029463;28;20477;-67
2022/08/16 06:27:19;;;;;;;6.07;5.47;;;20.70;99.90;;;;;;5029398;28;20476;-68
2022/08/16 06:29:46;;;;;;;5.20;4.53;;;21.00;99.90;;;;;;5029913;28;20459;-68
2022/08/16 06:32:14;;;;;;;5.60;5.07;;;21.30;99.90;;;;;;5029785;28;20475;-67
2022/08/16 06:34:41;;;;;;;7.03;5.30;;;21.60;99.90;;;;;;5029141;28;20463;-67
2022/08/16 06:37:08;;;;;;;6.10;5.50;;;21.80;99.90;;;;;;5029576;28;20461;-68
2022/08/16 06:39:35;;;;;;;8.10;5.63;;;21.90;99.90;;;;;;5029812;28;20451;-69
2022/08/16 06:42:02;;;;;;;8.27;6.07;;;21.90;99.90;;;;;;5029595;28;20855;-68
2022/08/16 06:44:29;;;;;;;7.33;5.70;;;21.90;99.90;;;;;;5029179;28;20459;-69
2022/08/16 06:46:56;;;;;;;6.40;5.27;;;21.90;99.90;;;;;;5029650;28;20572;-69
2022/08/16 06:49:24;;;;;;;7.90;5.23;;;21.80;99.90;;;;;;5030426;28;20440;-69
2022/08/16 06:51:51;;;;;;;7.20;5.67;;;21.60;99.90;;;;;;5030275;28;20453;-68
2022/08/16 06:54:18;;;;;;;6.33;5.37;;;21.40;99.90;;;;;;5030177;28;20934;-68
2022/08/16 06:56:45;;;;;;;5.30;4.83;;;21.10;99.90;;;;;;5029906;28;20552;-69
2022/08/16 06:59:12;;;;;;;5.90;5.33;;;21.10;99.90;;;;;;5030323;28;20449;-69
2022/08/16 07:01:38;;;;;;;9.00;5.80;;;21.00;99.90;;;;;;5029314;28;20459;-69
2022/08/16 07:04:06;;;;;;;6.80;5.73;;;21.00;99.90;;;;;;5029224;28;20961;-68
2022/08/16 07:06:34;;;;;;;7.63;5.70;;;21.00;99.90;;;;;;5029142;28;20496;-68
2022/08/16 07:09:01;;;;;;;7.27;4.77;;;21.10;99.90;;;;;;5031171;28;20453;-68
2022/08/16 07:11:28;;;;;;;6.40;5.80;;;21.10;99.90;;;;;;5032891;28;20933;-68
2022/08/16 07:13:55;;;;;;;6.83;5.30;;;21.20;99.90;;;;;;5033208;28;20451;-68
2022/08/16 07:16:22;;;;;;;5.73;5.23;;;21.20;99.90;;;;;;5032387;28;20990;-68
2022/08/16 07:18:49;;;;;;;11.20;5.73;;;21.20;99.90;;;;;;5032956;28;20547;-68
2022/08/16 07:21:16;;;;;;;7.33;5.80;;;21.40;99.90;;;;;;5032667;28;20980;-68
2022/08/16 07:23:45;;;;;;;6.40;5.20;;;21.40;99.90;;;;;;5032883;28;20449;-68
2022/08/16 07:26:18;;;;;;;6.57;5.30;;;21.40;99.90;;;;;;5032361;28;20488;-68
2022/08/16 07:28:45;;;;;;;5.53;4.97;;;21.50;99.90;;;;;;5032553;28;20532;-68
2022/08/16 07:31:12;;;;;;;5.93;5.43;;;21.60;99.90;;;;;;5032578;28;20453;-68
2022/08/16 07:33:39;;;;;;;5.73;5.10;;;21.70;99.90;;;;;;5032635;28;20451;-68
2022/08/16 07:36:07;;;;;;;6.63;5.70;;;21.80;99.90;;;;;;5032133;28;20488;-67
2022/08/16 07:38:34;;;;;;;7.17;5.30;;;21.90;99.90;;;;;;5032683;28;20809;-68
2022/08/16 07:41:03;;;;;;;6.60;5.93;;;22.00;99.90;;;;;;5032340;28;20453;-68
2022/08/16 07:43:30;;;;;;;5.70;5.03;;;22.10;99.90;;;;;;5032223;28;20823;-68
2022/08/16 07:45:57;;;;;;;6.20;5.63;;;22.20;99.90;;;;;;5032190;28;20492;-68
2022/08/16 07:48:25;;;;;;;5.13;4.63;;;22.40;99.90;;;;;;5032514;28;20453;-68
2022/08/16 07:50:52;;;;;;;6.93;5.90;;;22.50;99.90;;;;;;5032459;28;20457;-68
2022/08/16 07:53:19;;;;;;;7.73;6.40;;;22.60;99.90;;;;;;5032449;28;21017;-68
2022/08/16 07:55:46;;;;;;;7.20;6.50;;;22.70;99.90;;;;;;5032049;28;20476;-68
2022/08/16 07:58:14;;;;;;;6.37;5.47;;;22.70;99.90;;;;;;5032341;28;20832;-68
2022/08/16 08:00:41;;;;;;;10.23;6.57;;;22.70;99.90;;;;;;5032616;28;20464;-68
2022/08/16 08:03:08;;;;;;;7.18;5.90;;;22.80;99.90;;;;;;5031213;28;20480;-68
2022/08/16 08:05:35;;;;;;;6.00;5.40;;;22.90;99.90;;;;;;5031958;28;20269;-69
2022/08/16 08:08:01;;;;;;;8.27;6.47;;;22.90;99.90;;;;;;5032132;28;20472;-68
2022/08/16 08:10:28;;;;;;;7.57;6.37;;;23.10;99.90;;;;;;5031895;28;20479;-68
2022/08/16 08:12:56;;;;;;;8.00;5.80;;;23.20;99.90;;;;;;5032151;28;20445;-67
2022/08/16 08:15:26;;;;;;;6.10;5.50;;;23.30;99.90;;;;;;5031479;28;20950;-68
2022/08/16 08:17:53;;;;;;;5.87;5.37;;;23.50;99.90;;;;;;5031640;28;21061;-67
2022/08/16 08:20:25;;;;;;;8.23;6.30;;;23.60;99.90;;;;;;5030880;28;20614;-67
2022/08/16 08:22:54;;;;;;;10.07;7.00;;;23.70;99.90;;;;;;5031656;28;20449;-67
2022/08/16 08:25:22;;;;;;;7.30;5.97;;;23.70;99.90;;;;;;5031702;28;20491;-67
2022/08/16 08:27:49;;;;;;;7.10;5.77;;;23.60;99.90;;;;;;5031293;28;20476;-67
2022/08/16 08:30:17;;;;;;;6.97;6.27;;;23.70;99.90;;;;;;5031701;28;20453;-67
2022/08/16 08:32:45;;;;;;;9.43;6.60;;;23.80;99.90;;;;;;5031527;28;20447;-67
2022/08/16 08:35:12;;;;;;;7.50;6.47;;;23.80;99.90;;;;;;5031066;28;20453;-67
2022/08/16 08:37:39;;;;;;;6.87;6.27;;;24.10;99.90;;;;;;5031119;28;20473;-67
2022/08/16 08:40:09;;;;;;;7.00;5.73;;;24.50;99.90;;;;;;5031422;28;20449;-67
2022/08/16 08:42:36;;;;;;;5.90;5.37;;;24.80;99.90;;;;;;5031356;28;20472;-67
2022/08/16 08:45:04;;;;;;;7.10;5.93;;;25.30;99.90;;;;;;5030902;28;20955;-68
2022/08/16 08:47:31;;;;;;;6.60;6.00;;;25.50;99.90;;;;;;5031117;28;21011;-67
2022/08/16 08:50:00;;;;;;;5.40;4.90;;;25.60;99.90;;;;;;5031096;28;20455;-68
2022/08/16 08:52:26;;;;;;;7.13;6.40;;;26.10;99.90;;;;;;5031285;28;20453;-68
2022/08/16 08:54:53;;;;;;;6.10;5.50;;;26.50;98.70;;;;;;5030934;28;20952;-67
2022/08/16 08:57:20;;;;;;;6.97;6.07;;;27.20;98.10;;;;;;5031228;28;20852;-68
2022/08/16 08:59:47;;;;;;;5.87;5.37;;;27.50;96.50;;;;;;5031044;28;20877;-68
2022/08/16 09:02:15;;;;;;;9.53;5.97;;;27.50;96.10;;;;;;5030905;28;20455;-67
2022/08/16 09:04:42;;;;;;;6.83;6.13;;;27.50;96.00;;;;;;5030675;28;20874;-68
2022/08/16 09:07:11;;;;;;;6.37;5.80;;;27.40;95.30;;;;;;5030748;28;20489;-68
2022/08/16 09:09:38;;;;;;;6.10;5.60;;;27.00;95.90;;;;;;5030959;28;20829;-67
2022/08/16 09:12:05;;;;;;;7.70;5.90;;;26.80;96.40;;;;;;5030804;28;20456;-68
2022/08/16 09:14:32;;;;;;;9.07;6.47;;;26.70;96.80;;;;;;5031852;28;20449;-68
2022/08/16 09:17:00;;;;;;;6.23;5.53;;;26.50;96.80;;;;;;5030737;28;20603;-68
2022/08/16 09:19:27;;;;;;;10.20;6.37;;;26.40;95.40;;;;;;5030789;28;20830;-68
2022/08/16 09:21:54;;;;;;;7.47;6.77;;;26.00;96.00;;;;;;5030672;28;20445;-68
2022/08/16 09:24:22;;;;;;;7.17;6.47;;;25.90;96.00;;;;;;5030440;28;21010;-67
2022/08/16 09:26:49;;;;;;;7.07;6.40;;;25.80;96.30;;;;;;5029987;28;21029;-67
2022/08/16 09:29:16;;;;;;;6.50;5.90;;;26.00;96.50;;;;;;5030489;28;20456;-68
2022/08/16 09:31:43;;;;;;;6.63;6.00;;;26.50;96.70;;;;;;5030164;28;20451;-68
2022/08/16 09:34:10;;;;;;;8.77;6.73;;;26.90;94.60;;;;;;5030531;28;20444;-68
2022/08/16 09:36:37;;;;;;;6.70;5.07;;;27.40;94.30;;;;;;5030041;28;20465;-68
2022/08/16 09:39:04;;;;;;;7.17;6.57;;;27.90;95.00;;;;;;5030311;28;20454;-67
2022/08/16 09:41:33;;;;;;;6.30;5.00;;;28.20;93.70;;;;;;5030238;28;20461;-68
2022/08/16 09:44:02;;;;;;;7.17;6.47;;;28.60;93.20;;;;;;5030114;28;20444;-68
2022/08/16 09:46:30;;;;;;;6.73;6.13;;;28.70;92.30;;;;;;5029575;28;20485;-68
2022/08/16 09:48:57;;;;;;;7.30;5.97;;;28.70;91.10;;;;;;5030228;28;20445;-68
2022/08/16 09:51:26;;;;;;;5.80;5.27;;;28.40;91.10;;;;;;5030549;28;20445;-68
2022/08/16 09:53:54;;;;;;;6.67;5.97;;;28.00;92.00;;;;;;5030865;28;20456;-68
2022/08/16 09:56:26;;;;;;;6.43;5.87;;;27.90;91.90;;;;;;5030288;28;20500;-68
2022/08/16 09:58:55;;;;;;;7.00;6.30;;;27.80;92.60;;;;;;5030059;28;20942;-68
2022/08/16 10:01:23;;;;;;;6.10;5.50;;;27.30;92.00;;;;;;5030433;28;20449;-68
2022/08/16 10:03:50;;;;;;;7.13;6.40;;;27.00;92.90;;;;;;5030574;28;20453;-68
2022/08/16 10:06:17;;;;;;;6.60;5.87;;;27.10;93.50;;;;;;5029879;28;20480;-68
2022/08/16 10:08:45;;;;;;;6.20;5.63;;;27.80;92.70;;;;;;5030428;28;20833;-68
2022/08/16 10:13:57;;;;;;;6.47;5.20;;;29.50;89.70;;;;;;5030633;28;20487;-68
2022/08/16 10:16:24;;;;;;;7.90;6.30;;;30.40;85.40;;;;;;5029950;28;20986;-68
2022/08/16 10:18:52;;;;;;;6.60;6.00;;;30.50;82.50;;;;;;5030116;28;20665;-69
2022/08/16 10:21:19;;;;;;;5.80;5.03;;;30.20;82.20;;;;;;5029907;28;20445;-68
2022/08/16 10:23:47;;;;;;;7.10;6.40;;;30.00;84.00;;;;;;5029966;28;20475;-68
2022/08/16 10:26:14;;;;;;;6.27;5.67;;;29.90;85.80;;;;;;5029935;28;20571;-68
2022/08/16 10:28:41;;;;;;;6.67;5.90;;;29.80;85.20;;;;;;5030728;28;20895;-68
2022/08/16 10:31:10;;;;;;;6.23;5.63;;;29.30;86.60;;;;;;5030553;28;20452;-68
2022/08/16 10:33:37;;;;;;;6.73;6.13;;;29.20;90.00;;;;;;5030367;28;20445;-67
2022/08/16 10:36:06;;;;;;;6.93;6.23;;;29.10;86.50;;;;;;5030123;28;20445;-67
2022/08/16 10:38:34;;;;;;;6.43;5.37;;;29.30;86.70;;;;;;5030478;28;20967;-69
2022/08/16 10:41:01;;;;;;;7.50;5.80;;;29.40;85.60;;;;;;5030179;28;20445;-68
2022/08/16 10:43:28;;;;;;;6.03;5.40;;;29.40;86.80;;;;;;5030575;28;20449;-68
2022/08/16 10:45:55;;;;;;;6.47;5.87;;;29.40;87.70;;;;;;5033114;28;20449;-68
2022/08/16 10:48:23;;;;;;;6.00;5.50;;;29.80;85.40;;;;;;5033474;28;20476;-68
2022/08/16 10:50:50;;;;;;;6.50;5.30;;;29.90;85.70;;;;;;5033279;28;20935;-68
2022/08/16 10:53:17;;;;;;;6.23;5.60;;;30.20;86.30;;;;;;5033661;28;20455;-68
2022/08/16 10:55:44;;;;;;;7.00;5.40;;;30.40;84.00;;;;;;5033129;28;20449;-67
2022/08/16 10:58:13;;;;;;;5.97;5.00;;;30.50;83.30;;;;;;5033326;28;20461;-67
2022/08/16 11:00:41;;;;;;;6.40;5.27;;;30.70;83.30;;;;;;5033312;28;20453;-67
2022/08/16 11:03:09;;;;;;;6.10;5.13;;;30.90;81.00;;;;;;5033189;28;20456;-68
2022/08/16 11:05:42;;;;;;;6.17;5.60;;;31.00;80.10;;;;;;5032647;28;20453;-67
2022/08/16 11:08:11;;;;;;;7.00;6.30;;;30.90;79.00;;;;;;5033104;28;20484;-66
2022/08/16 11:10:41;;;;;;;6.27;5.07;;;30.50;78.00;;;;;;5033193;28;20448;-66
2022/08/16 11:13:09;;;;;;;5.77;5.27;;;30.40;77.10;;;;;;5033044;28;21132;-67
2022/08/16 11:15:37;;;;;;;6.00;5.40;;;30.10;78.00;;;;;;5033002;28;20544;-67
2022/08/16 11:18:07;;;;;;;5.73;5.03;;;30.00;78.20;;;;;;5032898;28;20904;-66
2022/08/16 11:20:34;;;;;;;6.67;5.90;;;29.90;79.20;;;;;;5032740;28;20506;-67
2022/08/16 11:23:02;;;;;;;5.50;4.90;;;29.90;78.80;;;;;;5032957;28;20495;-67
2022/08/16 11:25:32;;;;;;;6.00;5.50;;;30.00;78.40;;;;;;5032615;28;20918;-69
2022/08/16 11:28:00;;;;;;;5.97;5.47;;;29.80;79.40;;;;;;5032794;28;20538;-69
2022/08/16 11:30:29;;;;;;;6.40;5.90;;;30.10;77.40;;;;;;5032622;28;20994;-67
2022/08/16 11:32:56;;;;;;;6.47;5.33;;;30.80;75.50;;;;;;5032829;28;20457;-67
2022/08/16 11:35:27;;;;;;;5.70;5.20;;;31.40;74.70;;;;;;5032444;28;20470;-67
2022/08/16 11:37:56;;;;;;;5.70;5.10;;;32.40;75.20;;;;;;5032406;28;20473;-67
2022/08/16 11:40:27;;;;;;;5.00;4.60;;;33.80;72.20;;;;;;5032571;28;20477;-66
2022/08/16 11:42:54;;;;;;;5.30;4.87;;;34.60;63.80;;;;;;5032490;28;20842;-67
2022/08/16 11:45:22;;;;;;;7.27;5.67;;;34.20;63.30;;;;;;5032241;28;21242;-67
2022/08/16 11:47:49;;;;;;;5.27;4.77;;;34.10;65.90;;;;;;5032554;28;20511;-68
2022/08/16 11:50:17;;;;;;;5.20;4.60;;;34.30;62.90;;;;;;5032417;28;20456;-68
2022/08/16 11:52:44;;;;;;;5.50;4.90;;;34.20;61.10;;;;;;5032438;28;20540;-68
2022/08/16 11:55:12;;;;;;;5.90;5.40;;;34.00;61.00;;;;;;5030667;28;20453;-67
2022/08/16 11:57:41;;;;;;;6.13;5.40;;;33.20;62.90;;;;;;5032433;28;20960;-68
2022/08/16 12:00:11;;;;;;;9.60;5.23;;;32.80;64.60;;;;;;5032343;28;20453;-68
2022/08/16 12:02:39;;;;;;;7.33;5.43;;;32.80;63.30;;;;;;5032318;28;20441;-67
2022/08/16 12:05:08;;;;;;;7.13;5.03;;;32.30;65.10;;;;;;5032231;28;20786;-67
2022/08/16 12:07:35;;;;;;;7.10;4.70;;;32.50;65.70;;;;;;5032317;28;20481;-67
2022/08/16 12:10:07;;;;;;;6.30;4.80;;;33.00;64.70;;;;;;5032226;28;20441;-67
2022/08/16 12:12:34;;;;;;;5.73;5.13;;;33.40;63.80;;;;;;5032839;28;20453;-68
2022/08/16 12:15:02;;;;;;;4.80;4.40;;;34.10;60.40;;;;;;5032295;28;20502;-67
2022/08/16 12:17:30;;;;;;;5.50;5.00;;;35.00;58.70;;;;;;5032362;28;20859;-68
2022/08/16 12:19:57;;;;;;;5.20;4.70;;;35.40;57.10;;;;;;5032468;28;20445;-68
2022/08/16 12:22:25;;;;;;;4.90;4.50;;;35.30;56.90;;;;;;5032449;28;20451;-67
2022/08/16 12:24:52;;;;;;;5.27;4.40;;;35.30;56.70;;;;;;5032256;28;20455;-67
2022/08/16 12:27:21;;;;;;;5.47;4.90;;;35.00;55.80;;;;;;5032063;28;20495;-68
2022/08/16 12:29:48;;;;;;;5.10;4.70;;;33.90;57.60;;;;;;5032342;28;20460;-68
2022/08/16 12:32:16;;;;;;;5.10;4.60;;;33.90;58.20;;;;;;5032358;28;20503;-67
2022/08/16 12:34:43;;;;;;;6.73;4.73;;;33.60;58.20;;;;;;5032510;28;20445;-68
2022/08/16 12:37:12;;;;;;;5.70;4.87;;;33.90;58.40;;;;;;5032239;28;20473;-67
2022/08/16 12:39:40;;;;;;;5.53;5.03;;;34.90;57.10;;;;;;5032728;28;20453;-67
2022/08/16 12:42:08;;;;;;;5.63;5.13;;;35.60;55.90;;;;;;5032225;28;20951;-67
2022/08/16 12:44:35;;;;;;;4.87;4.40;;;36.50;57.00;;;;;;5033715;28;20821;-68
2022/08/16 12:49:48;;;;;;;4.80;4.30;;;36.90;53.00;;;;;;5034198;28;20435;-68
2022/08/16 12:52:15;;;;;;;5.30;4.80;;;36.80;53.50;;;;;;5032064;28;20456;-68
2022/08/16 12:54:42;;;;;;;4.73;4.33;;;36.60;51.80;;;;;;5032114;28;20556;-68